Berlin — 9HA2295 — position and weather

sailwx.info

Track history (hours):
 
Tides and Currents Weather Stations Pressure Air Temp Water Temp Dewpoint Dewpoint Depression Visibility Wind Speed Wind Dir Waves Ship Positions

Berlin

Last reported at 2015-Jul-30 17:33 UTC. Time now 2015-Jul-30 18:10 UTC.
Position N 53°41' E 008°21'.

Length 140 m; draft 5 m.

Type: Ship. MMSI: 248277000.

Date/timePositionNaut miles runAvg speedWind from/ knotsBaromVisibWave heightAir tempDewpointWater temp
2015-Jul-30 17:33N 53°41' E 008°21'1010.0
2015-Jul-30 16:32N 53°34' E 008°33'0 0.0
2015-Jul-30 15:32N 53°34' E 008°33'0 0.0
2015-Jul-30 14:32N 53°34' E 008°33'0 0.0
2015-Jul-30 13:32N 53°34' E 008°33'0 0.0
2015-Jul-30 12:32N 53°34' E 008°33'0 0.0
2015-Jul-30 11:32N 53°34' E 008°33'0 0.0
2015-Jul-30 10:32N 53°34' E 008°33'0 0.0
2015-Jul-30 09:29N 53°34' E 008°33'0 0.0
2015-Jul-30 08:32N 53°34' E 008°33'0 0.0
2015-Jul-30 07:33N 53°34' E 008°33'1110.9
2015-Jul-30 06:33N 53°42' E 008°21'1515.2
2015-Jul-30 05:33N 53°51' E 008°00'1414.1
2015-Jul-30 04:34N 53°57' E 007°38'1312.9
2015-Jul-30 03:33N 54°08' E 007°29'1312.9
2015-Jul-30 02:34N 54°20' E 007°19'1312.8
2015-Jul-30 01:33N 54°31' E 007°10'1412.4
2015-Jul-30 00:24N 54°44' E 006°59'1112.7
2015-Jul-29 23:34N 54°54' E 006°53'1312.9
2015-Jul-29 22:33N 55°06' E 006°45'1313.3
2015-Jul-29 21:33N 55°19' E 006°38'20514.2
2015-Jul-29 07:08N 58°36' E 004°51'2314.3
2015-Jul-29 05:33N 58°58' E 004°45'1413.8
2015-Jul-29 04:33N 59°12' E 004°41'1413.9
2015-Jul-29 03:31N 59°26' E 004°36'  
2015-Jul-26 22:28N 63°11' E 007°46'4811.8
2015-Jul-26 18:24N 63°34' E 009°20'911.1
2015-Jul-26 17:33N 63°42' E 009°30'1211.9
2015-Jul-26 16:33N 63°53' E 009°43'1111.4
2015-Jul-26 15:33N 64°03' E 009°50'5111.5
2015-Jul-26 11:07N 64°45' E 010°59'712.3
2015-Jul-26 10:33N 64°50' E 011°10'1212.4
2015-Jul-26 09:33N 64°58' E 011°33'1312.2
2015-Jul-26 08:31N 65°08' E 011°50'1212.2
2015-Jul-26 07:34N 65°19' E 012°00'5011.8
2015-Jul-26 03:21N 66°06' E 012°42'1212.7
2015-Jul-26 02:23N 66°17' E 012°55'1112.8
2015-Jul-26 01:30N 66°28' E 012°59'1512.1
2015-Jul-26 00:15N 66°43' E 013°10'912.8
2015-Jul-25 23:32N 66°51' E 013°19'1212.0
2015-Jul-25 22:33N 66°60' E 013°39'1312.7
2015-Jul-25 21:33N 67°09' E 014°02'1312.8
2015-Jul-25 20:33N 67°19' E 014°19'1111.2
2015-Jul-25 19:32N 67°31' E 014°18'1512.6
2015-Jul-25 18:20N 67°44' E 013°60'151 5.3
2015-Jul-24 14:11N 69°33' E 018°45'711.2
2015-Jul-24 13:33N 69°40' E 018°51'2 0.0
2015-Jul-22 20:21N 69°42' E 018°55'3 3.6
2015-Jul-22 19:29N 69°39' E 018°58'0 0.0
2015-Jul-22 18:32N 69°39' E 018°58'0 0.0
2015-Jul-22 17:29N 69°39' E 018°58'0 0.0
2015-Jul-22 16:29N 69°39' E 018°58'0 0.0
2015-Jul-22 15:32N 69°39' E 018°58'0 0.0
2015-Jul-22 14:33N 69°39' E 018°58'0 0.0
2015-Jul-22 13:24N 69°39' E 018°58'1 1.6
2015-Jul-22 12:33N 69°38' E 018°56'14713.4
2015-Jul-22 01:33N 67°49' E 014°22'1514.8
2015-Jul-22 00:32N 67°37' E 013°59'1414.3
2015-Jul-21 23:33N 67°25' E 013°38'1414.2
2015-Jul-21 22:33N 67°12' E 013°25'1514.6
2015-Jul-21 21:33N 66°57' E 013°28'1513.3
2015-Jul-21 20:24N 66°44' E 013°11'1313.5
2015-Jul-21 19:27N 66°32' E 012°58'1314.3
2015-Jul-21 18:32N 66°19' E 012°56'1414.0
2015-Jul-21 17:33N 66°06' E 012°43'5513.2
2015-Jul-21 13:24N 65°15' E 011°55'1214.0
2015-Jul-21 12:34N 65°04' E 011°45'1414.0
2015-Jul-21 11:33N 64°54' E 011°21'1211.5
2015-Jul-21 10:33N 64°46' E 011°02'5112.8
2015-Jul-21 06:33N 64°05' E 009°54'1313.1
2015-Jul-21 05:33N 63°52' E 009°43'1414.1
2015-Jul-21 04:34N 63°40' E 009°29'5513.6
2015-Jul-21 00:32N 63°10' E 007°45'  
Track history (hours):
 
Tides and Currents Weather Stations Pressure Air Temp Water Temp Dewpoint Dewpoint Depression Visibility Wind Speed Wind Dir Waves Ship Positions

Berlin

Last reported at 2015-Jul-30 17:33 UTC. Time now 2015-Jul-30 18:10 UTC.
Position N 53°41' E 008°21'.

Length 140 m; draft 5 m.

Type: Ship. MMSI: 248277000.

Date/timePositionNaut miles runAvg speedWind from/ knotsBaromVisibWave heightAir tempDewpointWater temp
2015-Jul-30 17:33N 53°41' E 008°21'1010.0
2015-Jul-30 16:32N 53°34' E 008°33'0 0.0
2015-Jul-30 15:32N 53°34' E 008°33'0 0.0
2015-Jul-30 14:32N 53°34' E 008°33'0 0.0
2015-Jul-30 13:32N 53°34' E 008°33'0 0.0
2015-Jul-30 12:32N 53°34' E 008°33'0 0.0
2015-Jul-30 11:32N 53°34' E 008°33'0 0.0
2015-Jul-30 10:32N 53°34' E 008°33'0 0.0
2015-Jul-30 09:29N 53°34' E 008°33'0 0.0
2015-Jul-30 08:32N 53°34' E 008°33'0 0.0
2015-Jul-30 07:33N 53°34' E 008°33'1110.9
2015-Jul-30 06:33N 53°42' E 008°21'1515.2
2015-Jul-30 05:33N 53°51' E 008°00'1414.1
2015-Jul-30 04:34N 53°57' E 007°38'1312.9
2015-Jul-30 03:33N 54°08' E 007°29'1312.9
2015-Jul-30 02:34N 54°20' E 007°19'1312.8
2015-Jul-30 01:33N 54°31' E 007°10'1412.4
2015-Jul-30 00:24N 54°44' E 006°59'1112.7
2015-Jul-29 23:34N 54°54' E 006°53'1312.9
2015-Jul-29 22:33N 55°06' E 006°45'1313.3
2015-Jul-29 21:33N 55°19' E 006°38'20514.2
2015-Jul-29 07:08N 58°36' E 004°51'2314.3
2015-Jul-29 05:33N 58°58' E 004°45'1413.8
2015-Jul-29 04:33N 59°12' E 004°41'1413.9
2015-Jul-29 03:31N 59°26' E 004°36'  
2015-Jul-26 22:28N 63°11' E 007°46'4811.8
2015-Jul-26 18:24N 63°34' E 009°20'911.1
2015-Jul-26 17:33N 63°42' E 009°30'1211.9
2015-Jul-26 16:33N 63°53' E 009°43'1111.4
2015-Jul-26 15:33N 64°03' E 009°50'5111.5
2015-Jul-26 11:07N 64°45' E 010°59'712.3
2015-Jul-26 10:33N 64°50' E 011°10'1212.4
2015-Jul-26 09:33N 64°58' E 011°33'1312.2
2015-Jul-26 08:31N 65°08' E 011°50'1212.2
2015-Jul-26 07:34N 65°19' E 012°00'5011.8
2015-Jul-26 03:21N 66°06' E 012°42'1212.7
2015-Jul-26 02:23N 66°17' E 012°55'1112.8
2015-Jul-26 01:30N 66°28' E 012°59'1512.1
2015-Jul-26 00:15N 66°43' E 013°10'912.8
2015-Jul-25 23:32N 66°51' E 013°19'1212.0
2015-Jul-25 22:33N 66°60' E 013°39'1312.7
2015-Jul-25 21:33N 67°09' E 014°02'1312.8
2015-Jul-25 20:33N 67°19' E 014°19'1111.2
2015-Jul-25 19:32N 67°31' E 014°18'1512.6
2015-Jul-25 18:20N 67°44' E 013°60'151 5.3
2015-Jul-24 14:11N 69°33' E 018°45'711.2
2015-Jul-24 13:33N 69°40' E 018°51'2 0.0
2015-Jul-22 20:21N 69°42' E 018°55'3 3.6
2015-Jul-22 19:29N 69°39' E 018°58'0 0.0
2015-Jul-22 18:32N 69°39' E 018°58'0 0.0
2015-Jul-22 17:29N 69°39' E 018°58'0 0.0
2015-Jul-22 16:29N 69°39' E 018°58'0 0.0
2015-Jul-22 15:32N 69°39' E 018°58'0 0.0
2015-Jul-22 14:33N 69°39' E 018°58'0 0.0
2015-Jul-22 13:24N 69°39' E 018°58'1 1.6
2015-Jul-22 12:33N 69°38' E 018°56'14713.4
2015-Jul-22 01:33N 67°49' E 014°22'1514.8
2015-Jul-22 00:32N 67°37' E 013°59'1414.3
2015-Jul-21 23:33N 67°25' E 013°38'1414.2
2015-Jul-21 22:33N 67°12' E 013°25'1514.6
2015-Jul-21 21:33N 66°57' E 013°28'1513.3
2015-Jul-21 20:24N 66°44' E 013°11'1313.5
2015-Jul-21 19:27N 66°32' E 012°58'1314.3
2015-Jul-21 18:32N 66°19' E 012°56'1414.0
2015-Jul-21 17:33N 66°06' E 012°43'5513.2
2015-Jul-21 13:24N 65°15' E 011°55'1214.0
2015-Jul-21 12:34N 65°04' E 011°45'1414.0
2015-Jul-21 11:33N 64°54' E 011°21'1211.5
2015-Jul-21 10:33N 64°46' E 011°02'5112.8
2015-Jul-21 06:33N 64°05' E 009°54'1313.1
2015-Jul-21 05:33N 63°52' E 009°43'1414.1
2015-Jul-21 04:34N 63°40' E 009°29'5513.6
2015-Jul-21 00:32N 63°10' E 007°45'  

Dump ship's entire track history